This is the latest recevied weather packets stored in our database for station/object KG7FOQ-13. If no packets are shown the sender has not sent any weather packets the latest 10 day(s).
| Time | Temp. | Humidity | Pressure | Rain* | Wind** | Luminosity | Snow |
|---|---|---|---|---|---|---|---|
| 1777541526 | 8.33° C | 66% | 1020.7 hPa | 0 mm | - | - | - |
| 1777541226 | 8.33° C | 67% | 1020.8 hPa | 0 mm | - | - | - |
| 1777540925 | 8.33° C | 67% | 1020.9 hPa | 0 mm | - | - | - |
| 1777540624 | 8.89° C | 65% | 1020.8 hPa | 0 mm | - | - | - |
| 1777540324 | 8.33° C | 65% | 1020.8 hPa | 0 mm | - | - | - |
| 1777540022 | 8.33° C | 66% | 1020.8 hPa | 0 mm | - | - | - |
| 1777539722 | 8.33° C | 65% | 1020.8 hPa | 0 mm | - | - | - |
| 1777539421 | 8.33° C | 64% | 1020.8 hPa | 0 mm | - | - | - |
| 1777539121 | 8.33° C | 66% | 1020.8 hPa | 0 mm | - | - | - |
| 1777538820 | 8.89° C | 65% | 1020.9 hPa | 0 mm | - | - | - |
| 1777538520 | 8.89° C | 63% | 1021 hPa | 0 mm | - | - | - |
| 1777538219 | 9.44° C | 63% | 1020.9 hPa | 0 mm | - | - | - |
| 1777537919 | 9.44° C | 61% | 1020.7 hPa | 0 mm | - | - | - |
| 1777537618 | 9.44° C | 60% | 1020.8 hPa | 0 mm | - | - | - |
| 1777537317 | 9.44° C | 60% | 1020.8 hPa | 0 mm | - | - | - |
| 1777537016 | 8.89° C | 59% | 1020.8 hPa | 0 mm | - | - | - |
| 1777536716 | 7.78° C | 62% | 1020.9 hPa | 0 mm | - | - | - |
| 1777536415 | 6.11° C | 69% | 1020.9 hPa | 0 mm | - | - | - |
| 1777536115 | 4.44° C | 73% | 1020.7 hPa | 0 mm | - | - | - |
| 1777535814 | 5° C | 71% | 1020.4 hPa | 0 mm | - | - | - |
| 1777535514 | 5° C | 71% | 1020.4 hPa | 0 mm | - | - | - |
| 1777535213 | 5° C | 71% | 1020.4 hPa | 0 mm | - | - | - |
| 1777534913 | 5° C | 72% | 1020.4 hPa | 0 mm | - | - | - |
| 1777534612 | 5° C | 72% | 1020.3 hPa | 0 mm | - | - | - |
| 1777534312 | 5° C | 71% | 1020.3 hPa | 0 mm | - | - | - |
* Rain latest hour (hover to see other rain measurements)
** Current wind speed in m/s (hover to see current wind gust speed)